sensor_id;sensor_type;location;lat;lon;timestamp;P1;durP1;ratioP1;P2;durP2;ratioP2
13951;SDS011;39535;52.192;9.886;2023-08-21T00:00:50;3.47;;;2.57;;
13951;SDS011;39535;52.192;9.886;2023-08-21T00:03:16;4.03;;;3.30;;
13951;SDS011;39535;52.192;9.886;2023-08-21T00:05:43;4.87;;;2.70;;
13951;SDS011;39535;52.192;9.886;2023-08-21T00:08:09;8.90;;;2.50;;
13951;SDS011;39535;52.192;9.886;2023-08-21T00:10:38;6.20;;;3.10;;
13951;SDS011;39535;52.192;9.886;2023-08-21T00:13:06;4.47;;;2.60;;
13951;SDS011;39535;52.192;9.886;2023-08-21T00:15:32;3.37;;;2.60;;
13951;SDS011;39535;52.192;9.886;2023-08-21T00:17:59;2.70;;;2.50;;
13951;SDS011;39535;52.192;9.886;2023-08-21T00:20:26;2.40;;;2.20;;
13951;SDS011;39535;52.192;9.886;2023-08-21T00:22:52;3.00;;;2.37;;
13951;SDS011;39535;52.192;9.886;2023-08-21T00:25:20;3.57;;;2.47;;
13951;SDS011;39535;52.192;9.886;2023-08-21T00:27:48;11.90;;;2.90;;
13951;SDS011;39535;52.192;9.886;2023-08-21T00:30:15;2.90;;;2.20;;
13951;SDS011;39535;52.192;9.886;2023-08-21T00:32:41;7.60;;;2.33;;
13951;SDS011;39535;52.192;9.886;2023-08-21T00:35:08;4.33;;;2.60;;
13951;SDS011;39535;52.192;9.886;2023-08-21T00:37:34;3.40;;;2.10;;
13951;SDS011;39535;52.192;9.886;2023-08-21T00:40:01;4.40;;;2.60;;
13951;SDS011;39535;52.192;9.886;2023-08-21T00:42:28;4.67;;;2.60;;
13951;SDS011;39535;52.192;9.886;2023-08-21T00:44:55;2.70;;;2.47;;
13951;SDS011;39535;52.192;9.886;2023-08-21T00:47:22;8.93;;;2.47;;
13951;SDS011;39535;52.192;9.886;2023-08-21T00:49:48;2.60;;;2.37;;
13951;SDS011;39535;52.192;9.886;2023-08-21T00:52:15;2.77;;;2.40;;
13951;SDS011;39535;52.192;9.886;2023-08-21T00:54:42;8.93;;;2.60;;
13951;SDS011;39535;52.192;9.886;2023-08-21T00:57:09;3.63;;;2.93;;
13951;SDS011;39535;52.192;9.886;2023-08-21T00:59:36;4.03;;;2.37;;
13951;SDS011;39535;52.192;9.886;2023-08-21T01:02:04;2.47;;;2.27;;
13951;SDS011;39535;52.192;9.886;2023-08-21T01:04:31;4.27;;;2.40;;
13951;SDS011;39535;52.192;9.886;2023-08-21T01:06:57;3.40;;;2.40;;
13951;SDS011;39535;52.192;9.886;2023-08-21T01:09:25;3.93;;;2.03;;
13951;SDS011;39535;52.192;9.886;2023-08-21T01:11:58;2.73;;;2.23;;
13951;SDS011;39535;52.192;9.886;2023-08-21T01:14:36;4.40;;;2.00;;
13951;SDS011;39535;52.192;9.886;2023-08-21T01:17:10;5.37;;;2.37;;
13951;SDS011;39535;52.192;9.886;2023-08-21T01:19:40;3.23;;;2.03;;
13951;SDS011;39535;52.192;9.886;2023-08-21T01:22:08;3.13;;;2.50;;
13951;SDS011;39535;52.192;9.886;2023-08-21T01:24:36;3.87;;;2.30;;
13951;SDS011;39535;52.192;9.886;2023-08-21T01:27:02;4.07;;;2.30;;
13951;SDS011;39535;52.192;9.886;2023-08-21T01:29:29;3.23;;;1.70;;
13951;SDS011;39535;52.192;9.886;2023-08-21T01:31:58;3.57;;;2.30;;
13951;SDS011;39535;52.192;9.886;2023-08-21T01:34:32;5.40;;;2.37;;
13951;SDS011;39535;52.192;9.886;2023-08-21T01:37:00;3.07;;;2.00;;
13951;SDS011;39535;52.192;9.886;2023-08-21T01:39:27;3.70;;;2.17;;
13951;SDS011;39535;52.192;9.886;2023-08-21T01:41:56;5.30;;;2.10;;
13951;SDS011;39535;52.192;9.886;2023-08-21T01:44:23;2.73;;;1.70;;
13951;SDS011;39535;52.192;9.886;2023-08-21T01:46:51;3.97;;;1.80;;
13951;SDS011;39535;52.192;9.886;2023-08-21T01:49:18;9.70;;;2.40;;
13951;SDS011;39535;52.192;9.886;2023-08-21T01:51:44;2.53;;;1.93;;
13951;SDS011;39535;52.192;9.886;2023-08-21T01:54:11;7.37;;;2.10;;
13951;SDS011;39535;52.192;9.886;2023-08-21T01:56:37;3.23;;;1.60;;
13951;SDS011;39535;52.192;9.886;2023-08-21T01:59:05;2.30;;;2.00;;
13951;SDS011;39535;52.192;9.886;2023-08-21T02:01:32;2.13;;;1.97;;
13951;SDS011;39535;52.192;9.886;2023-08-21T02:03:59;3.13;;;1.90;;
13951;SDS011;39535;52.192;9.886;2023-08-21T02:06:25;3.83;;;2.00;;
13951;SDS011;39535;52.192;9.886;2023-08-21T02:08:52;3.60;;;1.90;;
13951;SDS011;39535;52.192;9.886;2023-08-21T02:11:18;2.93;;;1.80;;
13951;SDS011;39535;52.192;9.886;2023-08-21T02:13:45;3.77;;;2.30;;
13951;SDS011;39535;52.192;9.886;2023-08-21T02:16:12;4.47;;;2.13;;
13951;SDS011;39535;52.192;9.886;2023-08-21T02:18:39;2.40;;;1.70;;
13951;SDS011;39535;52.192;9.886;2023-08-21T02:21:05;2.17;;;1.70;;
13951;SDS011;39535;52.192;9.886;2023-08-21T02:23:32;2.93;;;2.23;;
13951;SDS011;39535;52.192;9.886;2023-08-21T02:25:58;7.80;;;1.47;;
13951;SDS011;39535;52.192;9.886;2023-08-21T02:28:25;2.63;;;1.57;;
13951;SDS011;39535;52.192;9.886;2023-08-21T02:30:51;2.70;;;1.90;;
13951;SDS011;39535;52.192;9.886;2023-08-21T02:33:19;4.07;;;1.30;;
13951;SDS011;39535;52.192;9.886;2023-08-21T02:35:45;1.93;;;1.50;;
13951;SDS011;39535;52.192;9.886;2023-08-21T02:38:12;3.33;;;1.93;;
13951;SDS011;39535;52.192;9.886;2023-08-21T02:40:38;5.00;;;1.70;;
13951;SDS011;39535;52.192;9.886;2023-08-21T02:43:05;3.40;;;1.67;;
13951;SDS011;39535;52.192;9.886;2023-08-21T02:45:31;3.50;;;1.80;;
13951;SDS011;39535;52.192;9.886;2023-08-21T02:47:58;2.70;;;1.50;;
13951;SDS011;39535;52.192;9.886;2023-08-21T02:50:26;4.03;;;1.30;;
13951;SDS011;39535;52.192;9.886;2023-08-21T02:52:52;3.60;;;1.57;;
13951;SDS011;39535;52.192;9.886;2023-08-21T02:55:19;3.20;;;1.10;;
13951;SDS011;39535;52.192;9.886;2023-08-21T02:57:45;2.50;;;1.10;;
13951;SDS011;39535;52.192;9.886;2023-08-21T03:00:12;4.20;;;1.63;;
13951;SDS011;39535;52.192;9.886;2023-08-21T03:02:39;3.57;;;1.30;;
13951;SDS011;39535;52.192;9.886;2023-08-21T03:05:08;2.40;;;1.13;;
13951;SDS011;39535;52.192;9.886;2023-08-21T03:07:35;2.77;;;1.37;;
13951;SDS011;39535;52.192;9.886;2023-08-21T03:10:02;2.40;;;1.30;;
13951;SDS011;39535;52.192;9.886;2023-08-21T03:12:29;3.77;;;1.60;;
13951;SDS011;39535;52.192;9.886;2023-08-21T03:14:56;3.90;;;1.83;;
13951;SDS011;39535;52.192;9.886;2023-08-21T03:17:23;2.60;;;1.63;;
13951;SDS011;39535;52.192;9.886;2023-08-21T03:19:49;2.10;;;2.00;;
13951;SDS011;39535;52.192;9.886;2023-08-21T03:22:16;2.57;;;2.07;;
13951;SDS011;39535;52.192;9.886;2023-08-21T03:24:43;3.03;;;1.77;;
13951;SDS011;39535;52.192;9.886;2023-08-21T03:27:10;1.63;;;1.53;;
13951;SDS011;39535;52.192;9.886;2023-08-21T03:29:36;3.27;;;1.90;;
13951;SDS011;39535;52.192;9.886;2023-08-21T03:32:03;2.43;;;1.90;;
13951;SDS011;39535;52.192;9.886;2023-08-21T03:34:30;2.93;;;2.20;;
13951;SDS011;39535;52.192;9.886;2023-08-21T03:36:56;2.20;;;2.00;;
13951;SDS011;39535;52.192;9.886;2023-08-21T03:39:23;3.17;;;2.77;;
13951;SDS011;39535;52.192;9.886;2023-08-21T03:41:50;3.23;;;2.93;;
13951;SDS011;39535;52.192;9.886;2023-08-21T03:44:17;2.63;;;2.30;;
13951;SDS011;39535;52.192;9.886;2023-08-21T03:46:43;2.83;;;2.23;;
13951;SDS011;39535;52.192;9.886;2023-08-21T03:49:10;2.23;;;1.80;;
13951;SDS011;39535;52.192;9.886;2023-08-21T03:51:36;5.53;;;2.70;;
13951;SDS011;39535;52.192;9.886;2023-08-21T03:54:03;3.07;;;2.67;;
13951;SDS011;39535;52.192;9.886;2023-08-21T03:56:30;4.50;;;2.50;;
13951;SDS011;39535;52.192;9.886;2023-08-21T03:58:57;3.63;;;2.43;;
13951;SDS011;39535;52.192;9.886;2023-08-21T04:01:24;2.50;;;2.30;;
13951;SDS011;39535;52.192;9.886;2023-08-21T04:03:50;4.80;;;2.80;;
13951;SDS011;39535;52.192;9.886;2023-08-21T04:06:17;2.90;;;2.70;;
13951;SDS011;39535;52.192;9.886;2023-08-21T04:08:43;3.13;;;2.13;;
13951;SDS011;39535;52.192;9.886;2023-08-21T04:11:10;2.73;;;2.53;;
13951;SDS011;39535;52.192;9.886;2023-08-21T04:13:36;2.90;;;2.70;;
13951;SDS011;39535;52.192;9.886;2023-08-21T04:16:04;2.97;;;2.70;;
13951;SDS011;39535;52.192;9.886;2023-08-21T04:18:31;4.37;;;3.13;;
13951;SDS011;39535;52.192;9.886;2023-08-21T04:20:57;4.03;;;3.07;;
13951;SDS011;39535;52.192;9.886;2023-08-21T04:23:24;3.30;;;3.00;;
13951;SDS011;39535;52.192;9.886;2023-08-21T04:25:50;4.60;;;3.30;;
13951;SDS011;39535;52.192;9.886;2023-08-21T04:28:17;5.40;;;3.10;;
13951;SDS011;39535;52.192;9.886;2023-08-21T04:30:43;3.80;;;3.37;;
13951;SDS011;39535;52.192;9.886;2023-08-21T04:33:11;4.33;;;3.10;;
13951;SDS011;39535;52.192;9.886;2023-08-21T04:35:38;3.17;;;2.87;;
13951;SDS011;39535;52.192;9.886;2023-08-21T04:38:05;3.27;;;2.77;;
13951;SDS011;39535;52.192;9.886;2023-08-21T04:40:32;3.57;;;2.93;;
13951;SDS011;39535;52.192;9.886;2023-08-21T04:42:58;6.93;;;4.43;;
13951;SDS011;39535;52.192;9.886;2023-08-21T04:45:25;4.23;;;2.90;;
13951;SDS011;39535;52.192;9.886;2023-08-21T04:47:51;2.80;;;2.60;;
13951;SDS011;39535;52.192;9.886;2023-08-21T04:50:19;5.57;;;3.23;;
13951;SDS011;39535;52.192;9.886;2023-08-21T04:52:46;2.50;;;2.10;;
13951;SDS011;39535;52.192;9.886;2023-08-21T04:55:14;2.77;;;1.90;;
13951;SDS011;39535;52.192;9.886;2023-08-21T04:57:40;3.90;;;1.67;;
13951;SDS011;39535;52.192;9.886;2023-08-21T05:00:07;1.80;;;1.63;;
13951;SDS011;39535;52.192;9.886;2023-08-21T05:02:35;2.37;;;1.80;;
13951;SDS011;39535;52.192;9.886;2023-08-21T05:05:02;1.17;;;1.10;;
13951;SDS011;39535;52.192;9.886;2023-08-21T05:07:30;5.13;;;2.40;;
13951;SDS011;39535;52.192;9.886;2023-08-21T05:09:58;2.73;;;1.70;;
13951;SDS011;39535;52.192;9.886;2023-08-21T05:12:25;4.10;;;2.03;;
13951;SDS011;39535;52.192;9.886;2023-08-21T05:15:07;1.80;;;1.57;;
13951;SDS011;39535;52.192;9.886;2023-08-21T05:17:34;1.83;;;1.50;;
13951;SDS011;39535;52.192;9.886;2023-08-21T05:20:01;2.20;;;1.80;;
13951;SDS011;39535;52.192;9.886;2023-08-21T05:22:28;3.63;;;1.40;;
13951;SDS011;39535;52.192;9.886;2023-08-21T05:24:54;3.47;;;1.67;;
13951;SDS011;39535;52.192;9.886;2023-08-21T05:27:21;3.80;;;1.70;;
13951;SDS011;39535;52.192;9.886;2023-08-21T05:29:47;2.30;;;1.57;;
13951;SDS011;39535;52.192;9.886;2023-08-21T05:32:17;3.77;;;1.80;;
13951;SDS011;39535;52.192;9.886;2023-08-21T05:34:44;2.10;;;1.37;;
13951;SDS011;39535;52.192;9.886;2023-08-21T05:37:10;2.40;;;1.40;;
13951;SDS011;39535;52.192;9.886;2023-08-21T05:39:37;2.30;;;1.50;;
13951;SDS011;39535;52.192;9.886;2023-08-21T05:42:04;13.30;;;1.63;;
13951;SDS011;39535;52.192;9.886;2023-08-21T05:44:30;3.70;;;1.57;;
13951;SDS011;39535;52.192;9.886;2023-08-21T05:46:57;1.40;;;1.30;;
13951;SDS011;39535;52.192;9.886;2023-08-21T05:49:25;3.63;;;1.57;;
13951;SDS011;39535;52.192;9.886;2023-08-21T05:51:51;2.53;;;1.50;;
13951;SDS011;39535;52.192;9.886;2023-08-21T05:54:18;2.90;;;1.20;;
13951;SDS011;39535;52.192;9.886;2023-08-21T05:56:45;2.03;;;1.87;;
13951;SDS011;39535;52.192;9.886;2023-08-21T05:59:11;3.20;;;1.60;;
13951;SDS011;39535;52.192;9.886;2023-08-21T06:01:38;2.47;;;1.90;;
13951;SDS011;39535;52.192;9.886;2023-08-21T06:04:04;5.73;;;1.50;;
13951;SDS011;39535;52.192;9.886;2023-08-21T06:06:32;1.60;;;1.50;;
13951;SDS011;39535;52.192;9.886;2023-08-21T06:08:59;2.03;;;1.50;;
13951;SDS011;39535;52.192;9.886;2023-08-21T06:11:25;2.80;;;1.67;;
13951;SDS011;39535;52.192;9.886;2023-08-21T06:13:52;2.00;;;1.30;;
13951;SDS011;39535;52.192;9.886;2023-08-21T06:16:18;4.40;;;1.70;;
13951;SDS011;39535;52.192;9.886;2023-08-21T06:18:45;6.83;;;2.00;;
13951;SDS011;39535;52.192;9.886;2023-08-21T06:21:11;2.00;;;1.83;;
13951;SDS011;39535;52.192;9.886;2023-08-21T06:23:39;1.73;;;1.53;;
13951;SDS011;39535;52.192;9.886;2023-08-21T06:26:06;3.27;;;1.63;;
13951;SDS011;39535;52.192;9.886;2023-08-21T06:28:33;2.27;;;2.03;;
13951;SDS011;39535;52.192;9.886;2023-08-21T06:30:59;2.23;;;1.80;;
13951;SDS011;39535;52.192;9.886;2023-08-21T06:33:28;3.33;;;1.50;;
13951;SDS011;39535;52.192;9.886;2023-08-21T06:35:54;2.10;;;1.90;;
13951;SDS011;39535;52.192;9.886;2023-08-21T06:38:21;1.83;;;1.50;;
13951;SDS011;39535;52.192;9.886;2023-08-21T06:40:49;2.47;;;1.70;;
13951;SDS011;39535;52.192;9.886;2023-08-21T06:43:16;3.10;;;1.90;;
13951;SDS011;39535;52.192;9.886;2023-08-21T06:45:42;2.77;;;1.70;;
13951;SDS011;39535;52.192;9.886;2023-08-21T06:48:09;1.97;;;1.47;;
13951;SDS011;39535;52.192;9.886;2023-08-21T06:50:36;2.87;;;1.80;;
13951;SDS011;39535;52.192;9.886;2023-08-21T06:53:03;1.53;;;1.43;;
13951;SDS011;39535;52.192;9.886;2023-08-21T06:55:29;2.23;;;1.40;;
13951;SDS011;39535;52.192;9.886;2023-08-21T06:57:57;1.73;;;1.50;;
13951;SDS011;39535;52.192;9.886;2023-08-21T07:00:24;2.10;;;1.77;;
13951;SDS011;39535;52.192;9.886;2023-08-21T07:02:50;2.30;;;1.80;;
13951;SDS011;39535;52.192;9.886;2023-08-21T07:05:17;2.13;;;1.60;;
13951;SDS011;39535;52.192;9.886;2023-08-21T07:07:43;3.37;;;1.40;;
13951;SDS011;39535;52.192;9.886;2023-08-21T07:10:10;3.53;;;1.37;;
13951;SDS011;39535;52.192;9.886;2023-08-21T07:12:37;2.00;;;1.30;;
13951;SDS011;39535;52.192;9.886;2023-08-21T07:15:08;2.87;;;1.50;;
13951;SDS011;39535;52.192;9.886;2023-08-21T07:17:35;1.77;;;1.60;;
13951;SDS011;39535;52.192;9.886;2023-08-21T07:20:02;2.43;;;2.23;;
13951;SDS011;39535;52.192;9.886;2023-08-21T07:22:29;1.87;;;1.77;;
13951;SDS011;39535;52.192;9.886;2023-08-21T07:24:55;3.27;;;1.67;;
13951;SDS011;39535;52.192;9.886;2023-08-21T07:27:22;2.70;;;1.60;;
13951;SDS011;39535;52.192;9.886;2023-08-21T07:29:48;3.33;;;1.50;;
13951;SDS011;39535;52.192;9.886;2023-08-21T07:32:16;2.10;;;1.90;;
13951;SDS011;39535;52.192;9.886;2023-08-21T07:34:43;2.97;;;1.87;;
13951;SDS011;39535;52.192;9.886;2023-08-21T07:37:09;1.90;;;1.50;;
13951;SDS011;39535;52.192;9.886;2023-08-21T07:39:36;4.00;;;1.60;;
13951;SDS011;39535;52.192;9.886;2023-08-21T07:42:03;1.80;;;1.70;;
13951;SDS011;39535;52.192;9.886;2023-08-21T07:44:29;4.13;;;1.90;;
13951;SDS011;39535;52.192;9.886;2023-08-21T07:46:56;2.40;;;2.13;;
13951;SDS011;39535;52.192;9.886;2023-08-21T07:49:24;1.67;;;1.57;;
13951;SDS011;39535;52.192;9.886;2023-08-21T07:51:50;2.00;;;1.10;;
13951;SDS011;39535;52.192;9.886;2023-08-21T07:54:17;2.67;;;1.53;;
13951;SDS011;39535;52.192;9.886;2023-08-21T07:56:43;4.30;;;1.80;;
13951;SDS011;39535;52.192;9.886;2023-08-21T07:59:10;4.33;;;1.90;;
13951;SDS011;39535;52.192;9.886;2023-08-21T08:01:36;3.23;;;1.67;;
13951;SDS011;39535;52.192;9.886;2023-08-21T08:04:03;3.43;;;1.77;;
13951;SDS011;39535;52.192;9.886;2023-08-21T08:06:31;5.90;;;2.43;;
13951;SDS011;39535;52.192;9.886;2023-08-21T08:08:58;3.97;;;1.80;;
13951;SDS011;39535;52.192;9.886;2023-08-21T08:11:24;3.10;;;1.80;;
13951;SDS011;39535;52.192;9.886;2023-08-21T08:13:51;3.67;;;2.07;;
13951;SDS011;39535;52.192;9.886;2023-08-21T08:16:17;5.53;;;2.20;;
13951;SDS011;39535;52.192;9.886;2023-08-21T08:18:44;4.30;;;1.70;;
13951;SDS011;39535;52.192;9.886;2023-08-21T08:21:10;3.73;;;1.63;;
13951;SDS011;39535;52.192;9.886;2023-08-21T08:23:38;3.10;;;1.90;;
13951;SDS011;39535;52.192;9.886;2023-08-21T08:26:05;2.50;;;1.83;;
13951;SDS011;39535;52.192;9.886;2023-08-21T08:28:33;2.97;;;2.17;;
13951;SDS011;39535;52.192;9.886;2023-08-21T08:31:00;2.50;;;1.80;;
13951;SDS011;39535;52.192;9.886;2023-08-21T08:33:27;3.60;;;1.93;;
13951;SDS011;39535;52.192;9.886;2023-08-21T08:35:53;2.80;;;1.97;;
13951;SDS011;39535;52.192;9.886;2023-08-21T08:38:20;2.90;;;2.20;;
13951;SDS011;39535;52.192;9.886;2023-08-21T08:40:47;2.33;;;2.10;;
13951;SDS011;39535;52.192;9.886;2023-08-21T08:43:17;3.17;;;1.83;;
13951;SDS011;39535;52.192;9.886;2023-08-21T08:45:44;2.13;;;1.80;;
13951;SDS011;39535;52.192;9.886;2023-08-21T08:48:13;3.60;;;2.00;;
13951;SDS011;39535;52.192;9.886;2023-08-21T08:50:39;3.03;;;1.80;;
13951;SDS011;39535;52.192;9.886;2023-08-21T08:53:06;5.67;;;1.50;;
13951;SDS011;39535;52.192;9.886;2023-08-21T08:55:33;3.57;;;1.43;;
13951;SDS011;39535;52.192;9.886;2023-08-21T08:58:01;1.70;;;1.60;;
13951;SDS011;39535;52.192;9.886;2023-08-21T09:00:28;2.83;;;1.30;;
13951;SDS011;39535;52.192;9.886;2023-08-21T09:02:55;3.90;;;1.67;;
13951;SDS011;39535;52.192;9.886;2023-08-21T09:05:21;3.17;;;1.70;;
13951;SDS011;39535;52.192;9.886;2023-08-21T09:07:58;2.50;;;1.30;;
13951;SDS011;39535;52.192;9.886;2023-08-21T09:10:28;2.73;;;1.63;;
13951;SDS011;39535;52.192;9.886;2023-08-21T09:12:55;1.57;;;1.40;;
13951;SDS011;39535;52.192;9.886;2023-08-21T09:15:28;6.47;;;1.40;;
13951;SDS011;39535;52.192;9.886;2023-08-21T09:17:55;3.90;;;1.40;;
13951;SDS011;39535;52.192;9.886;2023-08-21T09:20:22;2.80;;;1.30;;
13951;SDS011;39535;52.192;9.886;2023-08-21T09:22:52;2.90;;;1.33;;
13951;SDS011;39535;52.192;9.886;2023-08-21T09:25:20;4.67;;;1.93;;
13951;SDS011;39535;52.192;9.886;2023-08-21T09:27:46;3.80;;;1.63;;
13951;SDS011;39535;52.192;9.886;2023-08-21T09:30:18;2.60;;;1.07;;
13951;SDS011;39535;52.192;9.886;2023-08-21T09:32:56;3.00;;;1.40;;
13951;SDS011;39535;52.192;9.886;2023-08-21T09:35:25;3.97;;;1.20;;
13951;SDS011;39535;52.192;9.886;2023-08-21T09:37:52;2.27;;;1.43;;
13951;SDS011;39535;52.192;9.886;2023-08-21T09:40:19;2.03;;;1.27;;
13951;SDS011;39535;52.192;9.886;2023-08-21T09:42:48;1.07;;;0.97;;
13951;SDS011;39535;52.192;9.886;2023-08-21T09:45:19;1.77;;;1.23;;
13951;SDS011;39535;52.192;9.886;2023-08-21T09:47:46;1.73;;;1.10;;
13951;SDS011;39535;52.192;9.886;2023-08-21T09:50:14;4.37;;;1.30;;
13951;SDS011;39535;52.192;9.886;2023-08-21T09:52:41;2.47;;;1.27;;
13951;SDS011;39535;52.192;9.886;2023-08-21T09:55:09;3.07;;;1.30;;
13951;SDS011;39535;52.192;9.886;2023-08-21T09:57:36;2.30;;;1.03;;
13951;SDS011;39535;52.192;9.886;2023-08-21T10:00:03;3.93;;;1.23;;
13951;SDS011;39535;52.192;9.886;2023-08-21T10:02:41;2.33;;;1.07;;
13951;SDS011;39535;52.192;9.886;2023-08-21T10:05:08;2.37;;;1.23;;
13951;SDS011;39535;52.192;9.886;2023-08-21T10:07:37;3.00;;;1.30;;
13951;SDS011;39535;52.192;9.886;2023-08-21T10:10:05;3.07;;;1.87;;
13951;SDS011;39535;52.192;9.886;2023-08-21T10:12:32;3.30;;;1.50;;
13951;SDS011;39535;52.192;9.886;2023-08-21T10:14:59;3.10;;;1.30;;
13951;SDS011;39535;52.192;9.886;2023-08-21T10:17:25;4.43;;;1.83;;
13951;SDS011;39535;52.192;9.886;2023-08-21T10:19:52;2.93;;;1.20;;
13951;SDS011;39535;52.192;9.886;2023-08-21T10:25:14;2.73;;;1.00;;
13951;SDS011;39535;52.192;9.886;2023-08-21T10:27:42;1.80;;;1.20;;
13951;SDS011;39535;52.192;9.886;2023-08-21T10:30:12;2.27;;;1.53;;
13951;SDS011;39535;52.192;9.886;2023-08-21T10:32:44;2.80;;;1.10;;
13951;SDS011;39535;52.192;9.886;2023-08-21T10:35:13;1.20;;;1.10;;
13951;SDS011;39535;52.192;9.886;2023-08-21T10:40:33;4.50;;;1.07;;
13951;SDS011;39535;52.192;9.886;2023-08-21T10:43:00;3.33;;;1.27;;
13951;SDS011;39535;52.192;9.886;2023-08-21T10:45:27;2.93;;;1.40;;
13951;SDS011;39535;52.192;9.886;2023-08-21T10:47:56;2.93;;;1.50;;
13951;SDS011;39535;52.192;9.886;2023-08-21T10:50:23;2.27;;;1.17;;
13951;SDS011;39535;52.192;9.886;2023-08-21T10:52:51;2.77;;;1.40;;
13951;SDS011;39535;52.192;9.886;2023-08-21T10:55:19;3.13;;;1.40;;
13951;SDS011;39535;52.192;9.886;2023-08-21T10:57:46;4.73;;;1.87;;
13951;SDS011;39535;52.192;9.886;2023-08-21T11:00:15;3.23;;;1.53;;
13951;SDS011;39535;52.192;9.886;2023-08-21T11:02:43;2.37;;;1.40;;
13951;SDS011;39535;52.192;9.886;2023-08-21T11:05:11;2.70;;;1.03;;
13951;SDS011;39535;52.192;9.886;2023-08-21T11:07:39;2.27;;;1.50;;
13951;SDS011;39535;52.192;9.886;2023-08-21T11:10:10;2.73;;;1.60;;
13951;SDS011;39535;52.192;9.886;2023-08-21T11:12:40;2.17;;;1.57;;
13951;SDS011;39535;52.192;9.886;2023-08-21T11:15:15;1.77;;;1.13;;
13951;SDS011;39535;52.192;9.886;2023-08-21T11:17:41;1.97;;;1.10;;
13951;SDS011;39535;52.192;9.886;2023-08-21T11:20:08;2.17;;;1.53;;
13951;SDS011;39535;52.192;9.886;2023-08-21T11:22:35;1.63;;;1.23;;
13951;SDS011;39535;52.192;9.886;2023-08-21T11:25:01;1.60;;;1.13;;
13951;SDS011;39535;52.192;9.886;2023-08-21T11:27:29;1.70;;;1.20;;
13951;SDS011;39535;52.192;9.886;2023-08-21T11:29:56;2.20;;;1.33;;
13951;SDS011;39535;52.192;9.886;2023-08-21T11:32:23;2.87;;;1.37;;
13951;SDS011;39535;52.192;9.886;2023-08-21T11:34:50;2.60;;;1.37;;
13951;SDS011;39535;52.192;9.886;2023-08-21T11:37:17;3.43;;;1.40;;
13951;SDS011;39535;52.192;9.886;2023-08-21T11:39:45;2.30;;;1.20;;
13951;SDS011;39535;52.192;9.886;2023-08-21T11:42:13;2.60;;;1.50;;
13951;SDS011;39535;52.192;9.886;2023-08-21T11:44:45;1.67;;;1.40;;
13951;SDS011;39535;52.192;9.886;2023-08-21T11:47:14;1.30;;;1.20;;
13951;SDS011;39535;52.192;9.886;2023-08-21T11:49:42;3.10;;;1.43;;
13951;SDS011;39535;52.192;9.886;2023-08-21T11:52:12;2.90;;;1.50;;
13951;SDS011;39535;52.192;9.886;2023-08-21T11:54:40;2.33;;;1.40;;
13951;SDS011;39535;52.192;9.886;2023-08-21T11:57:08;3.03;;;1.50;;
13951;SDS011;39535;52.192;9.886;2023-08-21T11:59:35;1.23;;;1.00;;
13951;SDS011;39535;52.192;9.886;2023-08-21T12:02:08;3.07;;;1.30;;
13951;SDS011;39535;52.192;9.886;2023-08-21T12:04:37;1.70;;;1.60;;
13951;SDS011;39535;52.192;9.886;2023-08-21T12:07:03;7.97;;;1.40;;
13951;SDS011;39535;52.192;9.886;2023-08-21T12:09:30;1.67;;;1.43;;
13951;SDS011;39535;52.192;9.886;2023-08-21T12:11:56;1.63;;;1.20;;
13951;SDS011;39535;52.192;9.886;2023-08-21T12:14:23;2.97;;;1.50;;
13951;SDS011;39535;52.192;9.886;2023-08-21T12:16:50;1.93;;;1.50;;
13951;SDS011;39535;52.192;9.886;2023-08-21T12:19:16;1.50;;;1.37;;
13951;SDS011;39535;52.192;9.886;2023-08-21T12:21:44;3.20;;;1.30;;
13951;SDS011;39535;52.192;9.886;2023-08-21T12:24:10;1.50;;;1.30;;
13951;SDS011;39535;52.192;9.886;2023-08-21T12:26:37;2.83;;;1.47;;
13951;SDS011;39535;52.192;9.886;2023-08-21T12:29:04;2.07;;;1.30;;
13951;SDS011;39535;52.192;9.886;2023-08-21T12:31:30;4.13;;;1.50;;
13951;SDS011;39535;52.192;9.886;2023-08-21T12:33:57;3.40;;;1.83;;
13951;SDS011;39535;52.192;9.886;2023-08-21T12:36:24;3.70;;;1.50;;
13951;SDS011;39535;52.192;9.886;2023-08-21T12:38:52;1.60;;;1.50;;
13951;SDS011;39535;52.192;9.886;2023-08-21T12:41:18;2.30;;;1.60;;
13951;SDS011;39535;52.192;9.886;2023-08-21T12:43:45;2.03;;;1.30;;
13951;SDS011;39535;52.192;9.886;2023-08-21T12:46:12;3.10;;;1.67;;
13951;SDS011;39535;52.192;9.886;2023-08-21T12:48:39;3.93;;;1.57;;
13951;SDS011;39535;52.192;9.886;2023-08-21T12:51:06;2.17;;;1.27;;
13951;SDS011;39535;52.192;9.886;2023-08-21T12:53:32;3.27;;;1.30;;
13951;SDS011;39535;52.192;9.886;2023-08-21T12:56:00;1.67;;;1.20;;
13951;SDS011;39535;52.192;9.886;2023-08-21T12:58:28;2.30;;;1.40;;
13951;SDS011;39535;52.192;9.886;2023-08-21T13:00:55;3.33;;;1.10;;
13951;SDS011;39535;52.192;9.886;2023-08-21T13:03:21;2.57;;;1.20;;
13951;SDS011;39535;52.192;9.886;2023-08-21T13:05:48;3.10;;;1.40;;
13951;SDS011;39535;52.192;9.886;2023-08-21T13:08:14;2.43;;;1.33;;
13951;SDS011;39535;52.192;9.886;2023-08-21T13:10:41;3.80;;;1.40;;
13951;SDS011;39535;52.192;9.886;2023-08-21T13:13:09;1.87;;;1.10;;
13951;SDS011;39535;52.192;9.886;2023-08-21T13:15:36;3.17;;;1.67;;
13951;SDS011;39535;52.192;9.886;2023-08-21T13:18:03;2.40;;;1.17;;
13951;SDS011;39535;52.192;9.886;2023-08-21T13:20:30;3.33;;;0.90;;
13951;SDS011;39535;52.192;9.886;2023-08-21T13:22:56;2.20;;;1.23;;
13951;SDS011;39535;52.192;9.886;2023-08-21T13:25:23;1.53;;;1.17;;
13951;SDS011;39535;52.192;9.886;2023-08-21T13:27:50;1.60;;;1.20;;
13951;SDS011;39535;52.192;9.886;2023-08-21T13:30:19;2.73;;;1.10;;
13951;SDS011;39535;52.192;9.886;2023-08-21T13:32:47;1.27;;;0.90;;
13951;SDS011;39535;52.192;9.886;2023-08-21T13:35:13;1.83;;;1.03;;
13951;SDS011;39535;52.192;9.886;2023-08-21T13:37:40;1.43;;;1.33;;
13951;SDS011;39535;52.192;9.886;2023-08-21T13:40:07;1.83;;;1.13;;
13951;SDS011;39535;52.192;9.886;2023-08-21T13:42:36;2.17;;;1.20;;
13951;SDS011;39535;52.192;9.886;2023-08-21T13:45:06;3.03;;;1.20;;
13951;SDS011;39535;52.192;9.886;2023-08-21T13:47:35;2.90;;;0.90;;
13951;SDS011;39535;52.192;9.886;2023-08-21T13:50:02;1.77;;;1.00;;
13951;SDS011;39535;52.192;9.886;2023-08-21T13:52:30;1.83;;;0.97;;
13951;SDS011;39535;52.192;9.886;2023-08-21T13:54:57;2.30;;;1.00;;
13951;SDS011;39535;52.192;9.886;2023-08-21T13:57:24;1.83;;;0.97;;
13951;SDS011;39535;52.192;9.886;2023-08-21T13:59:50;1.20;;;1.10;;
13951;SDS011;39535;52.192;9.886;2023-08-21T14:02:17;1.63;;;0.70;;
13951;SDS011;39535;52.192;9.886;2023-08-21T14:04:45;1.03;;;0.90;;
13951;SDS011;39535;52.192;9.886;2023-08-21T14:07:12;0.90;;;0.90;;
13951;SDS011;39535;52.192;9.886;2023-08-21T14:09:38;1.97;;;1.43;;
13951;SDS011;39535;52.192;9.886;2023-08-21T14:12:05;0.80;;;0.80;;
13951;SDS011;39535;52.192;9.886;2023-08-21T14:14:33;2.30;;;0.97;;
13951;SDS011;39535;52.192;9.886;2023-08-21T14:16:59;1.37;;;1.20;;
13951;SDS011;39535;52.192;9.886;2023-08-21T14:19:26;2.20;;;1.10;;
13951;SDS011;39535;52.192;9.886;2023-08-21T14:21:54;1.13;;;1.00;;
13951;SDS011;39535;52.192;9.886;2023-08-21T14:24:20;0.83;;;0.83;;
13951;SDS011;39535;52.192;9.886;2023-08-21T14:26:47;2.00;;;1.20;;
13951;SDS011;39535;52.192;9.886;2023-08-21T14:29:13;2.60;;;1.00;;
13951;SDS011;39535;52.192;9.886;2023-08-21T14:31:40;1.47;;;0.87;;
13951;SDS011;39535;52.192;9.886;2023-08-21T14:34:06;1.03;;;0.90;;
13951;SDS011;39535;52.192;9.886;2023-08-21T14:36:33;1.77;;;1.20;;
13951;SDS011;39535;52.192;9.886;2023-08-21T14:39:01;1.73;;;1.00;;
13951;SDS011;39535;52.192;9.886;2023-08-21T14:41:28;2.63;;;1.37;;
13951;SDS011;39535;52.192;9.886;2023-08-21T14:43:55;1.60;;;0.90;;
13951;SDS011;39535;52.192;9.886;2023-08-21T14:46:21;1.40;;;1.07;;
13951;SDS011;39535;52.192;9.886;2023-08-21T14:48:48;1.97;;;0.83;;
13951;SDS011;39535;52.192;9.886;2023-08-21T14:51:14;1.00;;;1.00;;
13951;SDS011;39535;52.192;9.886;2023-08-21T14:53:41;2.40;;;0.97;;